»·PEaware :: N4359Y KSMO-KSAN

N4359Y :: KSMO-KSAN

FLIGHT INFORMATION

Flight Status: Arrived
Operator: Privately registered:
United States
More flights under this callsign
Pilot: Ricardo M. (29263)
Aircraft: PIPER PA-44 SEMINOLE
(PA44)
More flights by this aircraft type
Origin: KSMO Santa Monica Mun
United States
Destination: KSAN San Diego Intl-Lindbergh
United States
More flights between these airports :: More routes between these airports
Route: SMO SMO125 V64 V363 DANAH V23 MZB
File this flight plan on PilotEdge
Remarks: SMOP22
Altitude:
(Current/Filed)
5,000ft
Speed:
(Current/Filed)
160kts
Departed: 13-Jan-21 08:42 PM
Arrived: 13-Jan-21 09:41 PM
Distance/Time
Traveled:
100nm/0:59
Distance/Time
To Go:
Arrived

Flight Plot

Page will automatically refresh every two minutes.

Flight plan parsing failed; only flown route is shown


Map Options




Map Legend


Flown Route
Filed Route
Departure Airport
Arrival Airport
Navaid (VOR, NDB)
Fix

Horizontal Profiles

Position Reports

Time Latitude Longitude Heading Altitude Ground
Speed
13-Jan-21 20:26 34.014488 -118.451430 314 147ft 0kts
13-Jan-21 20:27 34.014488 -118.451430 314 147ft 0kts
13-Jan-21 20:28 34.014488 -118.451430 314 147ft 0kts
13-Jan-21 20:29 34.014488 -118.451430 314 147ft 0kts
13-Jan-21 20:30 34.014488 -118.451430 314 147ft 0kts
13-Jan-21 20:31 34.014488 -118.451430 314 147ft 0kts
13-Jan-21 20:32 34.014488 -118.451430 314 147ft 0kts
13-Jan-21 20:33 34.014488 -118.451430 314 147ft 0kts
13-Jan-21 20:34 34.014488 -118.451430 314 147ft 0kts
13-Jan-21 20:35 34.014488 -118.451430 314 147ft 0kts
13-Jan-21 20:36 34.014488 -118.451430 314 147ft 0kts
13-Jan-21 20:37 34.014488 -118.451430 314 147ft 0kts
13-Jan-21 20:38 34.014488 -118.451430 314 147ft 0kts
13-Jan-21 20:39 34.015503 -118.450588 44 152ft 30kts
13-Jan-21 20:40 34.018998 -118.447524 228 175ft 12kts
13-Jan-21 20:41 34.003944 -118.466353 229 1463ft 125kts
13-Jan-21 20:42 33.983961 -118.508156 261 2720ft 157kts
13-Jan-21 20:43 33.997893 -118.551625 330 3643ft 150kts
13-Jan-21 20:44 34.021286 -118.531356 105 4791ft 150kts
13-Jan-21 20:45 34.012596 -118.478649 92 5062ft 164kts
13-Jan-21 20:46 33.986785 -118.433660 128 5040ft 170kts
13-Jan-21 20:47 33.950460 -118.396777 136 5040ft 171kts
13-Jan-21 20:48 33.913898 -118.359545 137 5043ft 171kts
13-Jan-21 20:49 33.877412 -118.322697 137 5039ft 171kts
13-Jan-21 20:50 33.841767 -118.286800 137 5036ft 171kts
13-Jan-21 20:51 33.818244 -118.242367 113 5025ft 167kts
13-Jan-21 20:52 33.799201 -118.194502 112 5034ft 166kts
13-Jan-21 20:53 33.781694 -118.150282 112 5017ft 166kts
13-Jan-21 20:54 33.765232 -118.108458 112 5022ft 166kts
13-Jan-21 20:55 33.749817 -118.069309 112 5024ft 165kts
13-Jan-21 20:56 33.733223 -118.027112 112 5015ft 165kts
13-Jan-21 20:57 33.714196 -117.977951 115 5027ft 166kts
13-Jan-21 20:58 33.684206 -117.935399 134 5026ft 169kts
13-Jan-21 20:59 33.650738 -117.895630 132 5026ft 169kts
13-Jan-21 21:00 33.617430 -117.855846 132 5021ft 169kts
13-Jan-21 21:01 33.584054 -117.815986 132 5019ft 169kts
13-Jan-21 21:02 33.550724 -117.776097 132 5015ft 169kts
13-Jan-21 21:03 33.517214 -117.736047 132 5022ft 170kts
13-Jan-21 21:04 33.483732 -117.696206 132 5027ft 169kts
13-Jan-21 21:05 33.447758 -117.659455 138 5011ft 169kts
13-Jan-21 21:07 33.412453 -117.622426 135 5034ft 168kts
13-Jan-21 21:08 33.379245 -117.583225 133 5032ft 168kts
13-Jan-21 21:09 33.346282 -117.543895 132 5037ft 167kts
13-Jan-21 21:10 33.313283 -117.504470 132 5035ft 167kts
13-Jan-21 21:11 33.280678 -117.465548 132 5011ft 166kts
13-Jan-21 21:12 33.247943 -117.426468 133 5027ft 166kts
13-Jan-21 21:13 33.208034 -117.399136 156 5002ft 168kts
13-Jan-21 21:14 33.163506 -117.381087 162 5000ft 169kts
13-Jan-21 21:15 33.118556 -117.364827 158 4999ft 169kts
13-Jan-21 21:16 33.073519 -117.351505 187 4972ft 171kts
13-Jan-21 21:17 33.027452 -117.344831 144 4958ft 167kts
13-Jan-21 21:18 32.989282 -117.313354 142 4982ft 166kts
13-Jan-21 21:19 32.951464 -117.281377 142 4976ft 166kts
13-Jan-21 21:20 32.913776 -117.248959 141 4949ft 166kts
13-Jan-21 21:21 32.876906 -117.215400 140 4967ft 166kts
13-Jan-21 21:21 32.846377 -117.187401 140 4966ft 166kts
13-Jan-21 21:23 32.824957 -117.131618 102 4970ft 163kts
13-Jan-21 21:24 32.814305 -117.079074 102 4966ft 163kts
13-Jan-21 21:24 32.805660 -117.035406 102 4966ft 163kts
13-Jan-21 21:26 32.793501 -116.974359 102 4979ft 162kts
13-Jan-21 21:26 32.784938 -116.930902 102 4992ft 162kts
13-Jan-21 21:27 32.755200 -116.904783 189 4308ft 163kts
13-Jan-21 21:28 32.746573 -116.906989 190 4124ft 163kts
13-Jan-21 21:29 32.746573 -116.906989 190 4124ft 163kts
13-Jan-21 21:30 32.746573 -116.906989 190 4124ft 163kts
13-Jan-21 21:31 32.746573 -116.906989 190 4124ft 163kts
13-Jan-21 21:32 32.746573 -116.906989 190 4124ft 163kts
13-Jan-21 21:33 32.746573 -116.906989 190 4124ft 163kts
13-Jan-21 21:34 32.746573 -116.906989 190 4124ft 163kts
13-Jan-21 21:35 32.746573 -116.906989 190 4124ft 163kts
13-Jan-21 21:36 32.746573 -116.906989 190 4124ft 163kts
13-Jan-21 21:37 32.746573 -116.906989 190 4124ft 163kts
13-Jan-21 21:40 32.734720 -117.190703 42 13ft 0kts
13-Jan-21 21:41 32.734997 -117.188192 106 13ft 24kts
13-Jan-21 21:42 32.734364 -117.184623 19 15ft 0kts
13-Jan-21 21:43 32.735250 -117.183530 54 16ft 0kts
13-Jan-21 21:44 32.735250 -117.183530 54 16ft 0kts
13-Jan-21 21:45 32.735250 -117.183530 54 16ft 0kts

Navigation Log

Ident Type
Flight plan parsing failed, navigation log unavailable